Latah, WA

4:02 AM PDT on October 02, 2014 (GMT -0700)
KIDWORLE2 | Change Station
CLOSE
Current Station
Personal Weather Station
Location: Worley, ID
Elevation: 2657 ft
Nearby Weather Stations

Elev 2657 ft 47.44 °N, 116.90 °W | Updated 1 minute ago

Partly Cloudy
Partly Cloudy
42.2 °F
Feels Like 35 °F
N
13.0
Wind Variable Wind from North
Gusts 14.0 mph

Today
High -- | Low -- °F
--% Chance of Precip.
Yesterday
High -- | Low -- °F
Precip. -- in
6:48 AM 6:25 PM
First Quarter, 57% visible
Pressure 30.09 in
Visibility 10.0 miles
Clouds Clear
Windchill 35 °F
Dew Point 34 °F
Humidity 72%
Rainfall 0.00 in
Snow Depth 0 in , 0 in , 0 in
UV 0 out of 12
Pollen 5.70 out of 12
Air Quality Not available.
Flu Activity Not available.
METAR KSFF 021053Z 00000KT 10SM CLR 08/02 A3010 RMK AO2 SLP189 T00780017

More Conditions Fewer Conditions

Pressure 30.09 in
Visibility 10.0 miles
Clouds Clear
Windchill 35 °F
Dew Point 34 °F
Humidity 72%
Rainfall 0.00 in
Snow Depth 0 in , 0 in , 0 in
UV 0 out of 12
Pollen 5.70 out of 12
Air Quality Not available.
Flu Activity Not available.
METAR KSFF 021053Z 00000KT 10SM CLR 08/02 A3010 RMK AO2 SLP189 T00780017

More Conditions Fewer Conditions

10-Day Weather Forecast

Almanac

Astronomy

Oct. 02, 2014 Rise Set
Actual Time 6:48 AM PDT 6:25 PM PDT
Civil Twilight 6:18 AM PDT 6:56 PM PDT
Nautical Twilight 5:42 AM PDT 7:31 PM PDT
Astronomical Twilight 5:06 AM PDT 8:07 PM PDT
Moon 2:56 PM PDT No Moon Set
Length of Visible Light 12h 37m
Length of Day
11h 36m
Tomorrow will be 3m 22s shorter.
First Quarter, 57% of the Moon is Illuminated
Today
First Quarter
Oct 8
Full
Oct 15
Last Quarter
Oct 23
New
Oct 30
First Quarter

Today's Extremes

State Highs State Lows

Community

WunderPhotos

Upload Photos

1,758,215 photos uploaded!

WunderBlogs® & News

Nearby

Snow Depth

Station Depth Elevation
Mount Gardner 0 in 3000 ft
Park Creek Ridge 0 in 4600 ft
Blewett Pass 0 in 4270 ft
Green Lake 0 in 6000 ft
Harts Pass 0 in 6500 ft

Earthquake Activity

City Distance Mag. Time & Date
No recent earthquake activity has been reported nearby.
Minimum magnitude displayed is 2.5.

Coastal Water Temperatures

Place Temperature
No Stations Reporting

Nearby Weather Stations